Time;durP1;ratioP1;P1;durP2;ratioP2;P2;SDS_P1;SDS_P2;PMS_P1;PMS_P2;Temp;Humidity;BMP_temperature;BMP_pressure;BME280_temperature;BME280_humidity;BME280_pressure;Samples;Min_cycle;Max_cycle;Signal;HPM_P1;HPM_P2
2023/06/02 00:00:06;;;;;;;;;;;;;;;14.82;100.00;96026.81;5044688;28;19931;-72
2023/06/02 00:02:36;;;;;;;;;;;;;;;14.87;100.00;96034.19;5048903;28;19933;-72
2023/06/02 00:05:03;;;;;;;;;;;;;;;14.87;100.00;96032.28;5028436;28;19933;-71
2023/06/02 00:07:30;;;;;;;;;;;;;;;14.87;100.00;96031.47;5041393;28;19930;-73
2023/06/02 00:09:58;;;;;;;;;;;;;;;14.78;100.00;96023.00;5031926;28;19925;-72
2023/06/02 00:12:25;;;;;;;;;;;;;;;14.74;100.00;96024.59;5027611;28;19925;-73
2023/06/02 00:14:53;;;;;;;;;;;;;;;14.65;100.00;96023.47;5047512;28;19936;-73
2023/06/02 00:17:20;;;;;;;;;;;;;;;14.56;100.00;96022.31;5030612;28;19975;-72
2023/06/02 00:19:47;;;;;;;;;;;;;;;14.55;100.00;96017.97;5038442;28;19955;-72
2023/06/02 00:22:15;;;;;;;;;;;;;;;14.55;100.00;96020.69;5043290;28;19947;-72
2023/06/02 00:24:42;;;;;;;;;;;;;;;14.54;100.00;96022.59;5032659;28;19932;-72
2023/06/02 00:27:09;;;;;;;;;;;;;;;14.47;100.00;96024.72;5032410;28;19929;-72
2023/06/02 00:29:36;;;;;;;;;;;;;;;14.44;100.00;96027.16;5029155;28;19933;-72
2023/06/02 00:32:04;;;;;;;;;;;;;;;14.45;100.00;96020.66;5032268;28;19968;-72
2023/06/02 00:34:31;;;;;;;;;;;;;;;14.46;100.00;96012.22;5028346;28;19925;-72
2023/06/02 00:36:58;;;;;;;;;;;;;;;14.43;100.00;96009.22;5034120;28;19924;-72
2023/06/02 00:39:25;;;;;;;;;;;;;;;14.35;100.00;96013.22;5017956;28;19925;-72
2023/06/02 00:41:52;;;;;;;;;;;;;;;14.29;100.00;96012.34;5031622;28;19925;-72
2023/06/02 00:44:19;;;;;;;;;;;;;;;14.30;100.00;96013.16;5051659;28;19978;-72
2023/06/02 00:46:46;;;;;;;;;;;;;;;14.27;100.00;96009.09;5027541;28;19931;-73
2023/06/02 00:49:14;;;;;;;;;;;;;;;14.37;100.00;95998.28;5026040;28;19932;-72
2023/06/02 00:51:41;;;;;;;;;;;;;;;14.42;100.00;96004.84;5033031;28;19925;-72
2023/06/02 00:54:09;;;;;;;;;;;;;;;14.44;100.00;96005.44;5021158;28;19925;-72
2023/06/02 00:56:36;;;;;;;;;;;;;;;14.48;100.00;96011.94;5030008;28;19932;-71
2023/06/02 00:59:03;;;;;;;;;;;;;;;14.53;100.00;96006.56;5039831;28;19935;-72
2023/06/02 01:01:30;;;;;;;;;;;;;;;14.56;100.00;96006.84;5040442;28;19933;-72
2023/06/02 01:03:57;;;;;;;;;;;;;;;14.59;100.00;96014.47;5022214;28;19926;-72
2023/06/02 01:06:31;;;;;;;;;;;;;;;14.53;100.00;96014.72;5028466;28;20005;-72
2023/06/02 01:08:59;;;;;;;;;;;;;;;14.47;100.00;96018.47;5027254;28;19956;-72
2023/06/02 01:11:26;;;;;;;;;;;;;;;14.38;100.00;96010.81;5021757;28;19983;-72
2023/06/02 01:13:53;;;;;;;;;;;;;;;14.29;100.00;96006.91;5033555;28;19925;-72
2023/06/02 01:16:20;;;;;;;;;;;;;;;14.24;100.00;96011.50;5031910;28;19925;-72
2023/06/02 01:18:49;;;;;;;;;;;;;;;14.19;100.00;96015.00;5048615;28;19971;-72
2023/06/02 01:21:23;;;;;;;;;;;;;;;14.19;100.00;96008.75;5033271;28;19932;-73
2023/06/02 01:23:53;;;;;;;;;;;;;;;14.19;100.00;96006.88;5027663;28;19924;-72
2023/06/02 01:26:20;;;;;;;;;;;;;;;14.17;100.00;96003.59;5046452;28;19925;-73
2023/06/02 01:28:47;;;;;;;;;;;;;;;14.16;100.00;96012.81;5023363;28;19924;-72
2023/06/02 01:31:17;;;;;;;;;;;;;;;14.10;100.00;96002.19;5035820;28;20008;-72
2023/06/02 01:33:46;;;;;;;;;;;;;;;14.05;100.00;96010.28;5035183;28;20016;-73
2023/06/02 01:36:14;;;;;;;;;;;;;;;14.02;100.00;95998.88;5048394;28;19928;-72
2023/06/02 01:38:42;;;;;;;;;;;;;;;14.02;100.00;95998.06;5033794;28;20041;-72
2023/06/02 01:41:11;;;;;;;;;;;;;;;13.96;100.00;95993.66;5052313;28;19932;-72
2023/06/02 01:43:38;;;;;;;;;;;;;;;13.93;100.00;95995.00;5055987;28;19931;-72
2023/06/02 01:46:06;;;;;;;;;;;;;;;13.95;100.00;96000.97;5036882;28;19928;-74
2023/06/02 01:48:34;;;;;;;;;;;;;;;13.97;100.00;96004.25;5038134;28;19929;-72
2023/06/02 01:51:01;;;;;;;;;;;;;;;13.94;100.00;95998.53;5034666;28;19926;-73
2023/06/02 01:53:28;;;;;;;;;;;;;;;13.90;100.00;96013.69;5027106;28;19925;-73
2023/06/02 01:55:56;;;;;;;;;;;;;;;13.83;100.00;96002.25;5026130;28;19964;-72
2023/06/02 01:58:25;;;;;;;;;;;;;;;13.79;100.00;96006.53;5038264;28;19979;-72
2023/06/02 02:00:54;;;;;;;;;;;;;;;13.73;100.00;96000.25;5032402;28;19925;-72
2023/06/02 02:03:22;;;;;;;;;;;;;;;13.68;100.00;96004.84;5042572;28;19932;-72
2023/06/02 02:05:48;;;;;;;;;;;;;;;13.64;100.00;95997.19;5043347;28;19933;-72
2023/06/02 02:08:16;;;;;;;;;;;;;;;13.66;100.00;95993.41;5053178;28;19929;-72
2023/06/02 02:10:42;;;;;;;;;;;;;;;13.68;100.00;95988.56;5066851;28;19924;-72
2023/06/02 02:13:09;;;;;;;;;;;;;;;13.69;100.00;95992.91;5045784;28;19933;-72
2023/06/02 02:15:37;;;;;;;;;;;;;;;13.72;100.00;95993.19;5044411;28;19932;-72
2023/06/02 02:18:04;;;;;;;;;;;;;;;13.75;100.00;95987.25;5040623;28;20019;-72
2023/06/02 02:20:31;;;;;;;;;;;;;;;13.80;100.00;95989.19;5038173;28;19986;-72
2023/06/02 02:22:58;;;;;;;;;;;;;;;13.81;100.00;95985.38;5026358;28;19933;-72
2023/06/02 02:25:25;;;;;;;;;;;;;;;13.76;100.00;95982.66;5051416;28;19929;-72
2023/06/02 02:27:52;;;;;;;;;;;;;;;13.71;100.00;95982.59;5028556;28;19925;-72
2023/06/02 02:30:19;;;;;;;;;;;;;;;13.71;100.00;95988.00;5031174;28;19925;-72
2023/06/02 02:32:51;;;;;;;;;;;;;;;13.71;100.00;95990.72;5037374;28;19925;-72
2023/06/02 02:35:18;;;;;;;;;;;;;;;13.73;100.00;95988.59;5036808;28;19929;-73
2023/06/02 02:37:46;;;;;;;;;;;;;;;13.69;100.00;95987.47;5024070;28;19940;-74
2023/06/02 02:40:15;;;;;;;;;;;;;;;13.67;100.00;95989.63;5022149;28;19931;-72
2023/06/02 02:42:42;;;;;;;;;;;;;;;13.63;100.00;95992.84;5023893;28;19933;-72
2023/06/02 02:45:10;;;;;;;;;;;;;;;13.61;100.00;96003.13;5030585;28;19932;-73
2023/06/02 02:47:38;;;;;;;;;;;;;;;13.58;100.00;96003.66;5033670;28;19952;-72
2023/06/02 02:50:06;;;;;;;;;;;;;;;13.59;100.00;95997.16;5047659;28;19932;-72
2023/06/02 02:52:35;;;;;;;;;;;;;;;13.58;100.00;95994.69;5050385;28;19961;-72
2023/06/02 02:55:02;;;;;;;;;;;;;;;13.59;100.00;96001.78;5029718;28;19929;-72
2023/06/02 02:57:29;;;;;;;;;;;;;;;13.56;100.00;95994.94;5041797;28;19967;-71
2023/06/02 02:59:56;;;;;;;;;;;;;;;13.46;100.00;95992.16;5023395;28;19925;-72
2023/06/02 03:02:23;;;;;;;;;;;;;;;13.42;100.00;95992.94;5040081;28;19979;-74
2023/06/02 03:04:51;;;;;;;;;;;;;;;13.41;100.00;95992.09;5027490;28;19932;-72
2023/06/02 03:07:20;;;;;;;;;;;;;;;13.44;100.00;95985.34;5031493;28;19928;-72
2023/06/02 03:09:47;;;;;;;;;;;;;;;13.49;100.00;95990.81;5034863;28;19925;-72
2023/06/02 03:12:14;;;;;;;;;;;;;;;13.52;100.00;95984.88;5048018;28;19924;-72
2023/06/02 03:14:41;;;;;;;;;;;;;;;13.58;100.00;96000.13;5064394;28;19992;-72
2023/06/02 03:17:08;;;;;;;;;;;;;;;13.62;100.00;95991.19;5037331;28;20019;-72
2023/06/02 03:19:37;;;;;;;;;;;;;;;13.66;100.00;95996.94;5049648;28;19929;-72
2023/06/02 03:22:05;;;;;;;;;;;;;;;13.65;100.00;95995.31;5027909;28;20046;-72
2023/06/02 03:24:35;;;;;;;;;;;;;;;13.61;100.00;96003.13;5025805;28;19935;-72
2023/06/02 03:27:05;;;;;;;;;;;;;;;13.61;100.00;96007.72;5034165;28;19929;-73
2023/06/02 03:29:32;;;;;;;;;;;;;;;13.59;100.00;96010.72;5036211;28;19964;-72
2023/06/02 03:32:00;;;;;;;;;;;;;;;13.63;100.00;96003.69;5027139;28;19933;-72
2023/06/02 03:34:30;;;;;;;;;;;;;;;13.62;100.00;96010.19;5044776;28;19929;-72
2023/06/02 03:37:01;;;;;;;;;;;;;;;13.59;100.00;96013.44;5032354;28;19939;-72
2023/06/02 03:39:28;;;;;;;;;;;;;;;13.57;100.00;96012.88;5042028;28;19925;-71
2023/06/02 03:41:57;;;;;;;;;;;;;;;13.48;100.00;96017.13;5046489;28;19924;-71
2023/06/02 03:44:23;;;;;;;;;;;;;;;13.42;100.00;96020.88;5032569;28;20011;-72
2023/06/02 03:46:50;;;;;;;;;;;;;;;13.47;100.00;96025.50;5033586;28;20032;-72
2023/06/02 03:49:17;;;;;;;;;;;;;;;13.50;100.00;96016.88;5036163;28;19991;-72
2023/06/02 03:51:46;;;;;;;;;;;;;;;13.44;100.00;96026.84;5041268;28;19994;-72
2023/06/02 03:54:14;;;;;;;;;;;;;;;13.42;100.00;96018.16;5039836;28;19975;-72
2023/06/02 03:56:40;;;;;;;;;;;;;;;13.44;100.00;96028.75;5032261;28;19924;-72
2023/06/02 03:59:09;;;;;;;;;;;;;;;13.40;100.00;96030.31;5035482;28;19924;-72
2023/06/02 04:01:36;;;;;;;;;;;;;;;13.40;100.00;96025.72;5028517;28;19951;-72
2023/06/02 04:04:05;;;;;;;;;;;;;;;13.34;100.00;96029.47;5027158;28;19932;-72
2023/06/02 04:06:31;;;;;;;;;;;;;;;13.35;100.00;96027.56;5031960;28;19932;-73
2023/06/02 04:08:58;;;;;;;;;;;;;;;13.34;100.00;96026.75;5028348;28;19926;-71
2023/06/02 04:11:26;;;;;;;;;;;;;;;13.29;100.00;96029.38;5026170;28;20021;-72
2023/06/02 04:13:55;;;;;;;;;;;;;;;13.22;100.00;96031.50;5029115;28;19932;-72
2023/06/02 04:16:23;;;;;;;;;;;;;;;13.23;100.00;96036.66;5028646;28;19930;-72
2023/06/02 04:18:51;;;;;;;;;;;;;;;13.23;100.00;96030.41;5019213;28;19932;-72
2023/06/02 04:21:17;;;;;;;;;;;;;;;13.21;100.00;96044.22;5028327;28;19947;-73
2023/06/02 04:23:45;;;;;;;;;;;;;;;13.18;100.00;96033.88;5026523;28;19955;-73
2023/06/02 04:26:12;;;;;;;;;;;;;;;13.23;100.00;96041.25;5028750;28;19933;-73
2023/06/02 04:28:40;;;;;;;;;;;;;;;13.24;100.00;96041.00;5026428;28;19939;-72
2023/06/02 04:31:09;;;;;;;;;;;;;;;13.24;100.00;96042.91;5027457;28;19932;-72
2023/06/02 04:33:41;;;;;;;;;;;;;;;13.22;100.00;96045.88;5026027;28;19932;-72
2023/06/02 04:36:11;;;;;;;;;;;;;;;13.18;100.00;96043.94;5016003;28;19979;-72
2023/06/02 04:38:39;;;;;;;;;;;;;;;13.16;100.00;96046.06;5036289;28;19988;-73
2023/06/02 04:41:07;;;;;;;;;;;;;;;13.15;100.00;96052.56;5015504;28;19932;-72
2023/06/02 04:43:35;;;;;;;;;;;;;;;13.20;100.00;96052.59;5028311;28;19925;-71
2023/06/02 04:46:06;;;;;;;;;;;;;;;13.27;100.00;96047.81;5030855;28;19969;-71
2023/06/02 04:48:33;;;;;;;;;;;;;;;13.30;100.00;96052.72;5041283;28;19932;-72
2023/06/02 04:51:02;;;;;;;;;;;;;;;13.34;100.00;96059.28;5042903;28;20041;-72
2023/06/02 04:53:29;;;;;;;;;;;;;;;13.32;100.00;96050.59;5029060;28;19947;-72
2023/06/02 04:55:56;;;;;;;;;;;;;;;13.37;100.00;96058.75;5022725;28;19964;-72
2023/06/02 04:58:23;;;;;;;;;;;;;;;13.43;100.00;96052.34;5024934;28;19967;-72
2023/06/02 05:00:50;;;;;;;;;;;;;;;13.44;100.00;96056.66;5027289;28;19960;-73
2023/06/02 05:03:17;;;;;;;;;;;;;;;13.44;100.00;96059.38;5027384;28;19960;-72
2023/06/02 05:05:44;;;;;;;;;;;;;;;13.47;100.00;96066.19;5024245;28;19929;-73
2023/06/02 05:08:12;;;;;;;;;;;;;;;13.39;100.00;96056.63;5030377;28;19929;-74
2023/06/02 05:10:39;;;;;;;;;;;;;;;13.30;100.00;96063.56;5028584;28;19925;-72
2023/06/02 05:13:06;;;;;;;;;;;;;;;13.33;100.00;96063.06;5044608;28;19929;-72
2023/06/02 05:15:33;;;;;;;;;;;;;;;13.37;100.00;96055.22;5030737;28;19925;-71
2023/06/02 05:18:00;;;;;;;;;;;;;;;13.44;100.00;96053.94;5046454;28;20000;-72
2023/06/02 05:20:27;;;;;;;;;;;;;;;13.44;100.00;96053.94;5029216;28;19979;-71
2023/06/02 05:22:54;;;;;;;;;;;;;;;13.45;100.00;96050.16;5047974;28;19932;-72
2023/06/02 05:25:23;;;;;;;;;;;;;;;13.46;100.00;96046.38;5030594;28;20031;-73
2023/06/02 05:27:49;;;;;;;;;;;;;;;13.42;100.00;96050.69;5025277;28;19925;-72
2023/06/02 05:30:17;;;;;;;;;;;;;;;13.44;100.00;96045.03;5032866;28;19929;-72
2023/06/02 05:32:45;;;;;;;;;;;;;;;13.50;100.00;96047.53;5029413;28;19925;-71
2023/06/02 05:35:12;;;;;;;;;;;;;;;13.57;100.00;96050.03;5024169;28;19925;-72
2023/06/02 05:37:40;;;;;;;;;;;;;;;13.60;100.00;96042.22;5041491;28;19936;-73
2023/06/02 05:40:09;;;;;;;;;;;;;;;13.60;100.00;96044.91;5029446;28;19925;-72
2023/06/02 05:42:38;;;;;;;;;;;;;;;13.59;100.00;96039.75;5037250;28;19982;-72
2023/06/02 05:45:05;;;;;;;;;;;;;;;13.52;100.00;96039.97;5046672;28;19931;-73
2023/06/02 05:47:34;;;;;;;;;;;;;;;13.52;100.00;96044.56;5029306;28;20055;-72
2023/06/02 05:50:01;;;;;;;;;;;;;;;13.55;100.00;96035.91;5029825;28;20024;-71
2023/06/02 05:52:29;;;;;;;;;;;;;;;13.57;100.00;96042.72;5032782;28;19979;-72
2023/06/02 05:54:57;;;;;;;;;;;;;;;13.56;100.00;96037.53;5034807;28;19939;-72
2023/06/02 05:57:25;;;;;;;;;;;;;;;13.55;100.00;96039.44;5019742;28;19926;-73
2023/06/02 05:59:53;;;;;;;;;;;;;;;13.58;100.00;96038.09;5051479;28;20036;-74
2023/06/02 06:02:20;;;;;;;;;;;;;;;13.62;100.00;96037.31;5028432;28;19931;-72
2023/06/02 06:04:47;;;;;;;;;;;;;;;13.66;100.00;96039.53;5046497;28;19948;-72
2023/06/02 06:07:13;;;;;;;;;;;;;;;13.64;100.00;96045.22;5031695;28;19964;-72
2023/06/02 06:09:41;;;;;;;;;;;;;;;13.64;100.00;96037.88;5029191;28;19936;-72
2023/06/02 06:12:09;;;;;;;;;;;;;;;13.65;100.00;96041.44;5030978;28;19933;-71
2023/06/02 06:14:36;;;;;;;;;;;;;;;13.64;100.00;96043.31;5043806;28;19935;-71
2023/06/02 06:17:05;;;;;;;;;;;;;;;13.68;100.00;96040.09;5044220;28;19925;-72
2023/06/02 06:19:32;;;;;;;;;;;;;;;13.70;100.00;96046.88;5024472;28;19948;-72
2023/06/02 06:21:59;;;;;;;;;;;;;;;13.73;100.00;96051.00;5026731;28;19982;-73
2023/06/02 06:24:26;;;;;;;;;;;;;;;13.75;100.00;96048.84;5029261;28;19929;-72
2023/06/02 06:26:53;;;;;;;;;;;;;;;13.78;100.00;96051.06;5034928;28;19960;-72
2023/06/02 06:29:20;;;;;;;;;;;;;;;13.81;100.00;96050.53;5024006;28;20595;-72
2023/06/02 06:31:47;;;;;;;;;;;;;;;13.84;100.00;96058.97;5029153;28;19972;-71
2023/06/02 06:34:15;;;;;;;;;;;;;;;13.86;100.00;96058.72;5030521;28;19931;-71
2023/06/02 06:36:42;;;;;;;;;;;;;;;13.83;100.00;96054.63;5034978;28;19932;-71
2023/06/02 06:39:09;;;;;;;;;;;;;;;13.84;100.00;96047.31;5043604;28;19970;-74
2023/06/02 06:41:40;;;;;;;;;;;;;;;13.85;100.00;96049.75;5027387;28;19959;-71
2023/06/02 06:44:11;;;;;;;;;;;;;;;13.89;100.00;96055.47;5033724;28;19925;-71
2023/06/02 06:46:38;;;;;;;;;;;;;;;13.87;100.00;96057.63;5034483;28;19925;-73
2023/06/02 06:49:06;;;;;;;;;;;;;;;13.89;100.00;96052.75;5028916;28;19925;-71
2023/06/02 06:51:36;;;;;;;;;;;;;;;13.94;100.00;96052.81;5050889;28;19925;-72
2023/06/02 06:54:03;;;;;;;;;;;;;;;14.02;100.00;96053.16;5019063;28;20036;-72
2023/06/02 06:56:30;;;;;;;;;;;;;;;14.07;100.00;96051.56;5047846;28;19925;-71
2023/06/02 06:58:57;;;;;;;;;;;;;;;14.06;100.00;96058.06;5039802;28;19936;-72
2023/06/02 07:01:23;;;;;;;;;;;;;;;14.12;100.00;96057.84;5044993;28;19932;-72
2023/06/02 07:03:50;;;;;;;;;;;;;;;14.19;100.00;96055.75;5051551;28;19971;-72
2023/06/02 07:06:17;;;;;;;;;;;;;;;14.25;100.00;96048.44;5043699;28;19964;-72
2023/06/02 07:08:45;;;;;;;;;;;;;;;14.33;100.00;96054.22;5034458;28;19933;-72
2023/06/02 07:11:12;;;;;;;;;;;;;;;14.44;100.00;96055.13;5026324;28;19924;-71
2023/06/02 07:13:40;;;;;;;;;;;;;;;14.75;100.00;96053.41;5046871;28;19931;-72
2023/06/02 07:16:07;;;;;;;;;;;;;;;15.22;100.00;96052.56;5027611;28;19925;-72
2023/06/02 07:18:34;;;;;;;;;;;;;;;15.58;100.00;96057.03;5031248;28;19929;-72
2023/06/02 07:21:01;;;;;;;;;;;;;;;15.95;100.00;96059.53;5035900;28;19948;-72
2023/06/02 07:23:28;;;;;;;;;;;;;;;16.33;100.00;96057.38;5023546;28;19952;-72
2023/06/02 07:25:56;;;;;;;;;;;;;;;16.59;100.00;96051.59;5032637;28;19928;-72
2023/06/02 07:28:23;;;;;;;;;;;;;;;16.95;100.00;96057.81;5047048;28;19996;-72
2023/06/02 07:30:51;;;;;;;;;;;;;;;17.33;100.00;96050.88;5044247;28;19925;-72
2023/06/02 07:33:18;;;;;;;;;;;;;;;17.51;100.00;96048.59;5021794;28;19925;-72
2023/06/02 07:35:45;;;;;;;;;;;;;;;17.61;100.00;96043.06;5044219;28;19932;-72
2023/06/02 07:38:12;;;;;;;;;;;;;;;17.77;100.00;96048.22;5040268;28;19929;-72
2023/06/02 07:40:39;;;;;;;;;;;;;;;18.11;100.00;96050.16;5030810;28;19996;-72
2023/06/02 07:43:07;;;;;;;;;;;;;;;18.23;100.00;96047.84;5049006;28;19939;-72
2023/06/02 07:45:34;;;;;;;;;;;;;;;18.23;100.00;96041.56;5031371;28;19925;-71
2023/06/02 07:48:01;;;;;;;;;;;;;;;18.15;100.00;96046.56;5019033;28;19979;-72
2023/06/02 07:50:28;;;;;;;;;;;;;;;18.22;100.00;96040.75;5040449;28;19928;-72
2023/06/02 07:52:55;;;;;;;;;;;;;;;18.56;100.00;96035.25;5045403;28;19925;-72
2023/06/02 07:55:22;;;;;;;;;;;;;;;18.67;100.00;96031.34;5031449;28;19932;-72
2023/06/02 07:57:49;;;;;;;;;;;;;;;18.84;100.00;96031.72;5025653;28;20030;-72
2023/06/02 08:00:18;;;;;;;;;;;;;;;19.09;100.00;96033.34;5037385;28;19932;-72
2023/06/02 08:02:47;;;;;;;;;;;;;;;19.39;100.00;96032.19;5046040;28;19925;-72
2023/06/02 08:05:14;;;;;;;;;;;;;;;19.70;100.00;96029.03;5033242;28;19982;-72
2023/06/02 08:07:41;;;;;;;;;;;;;;;19.92;99.64;96034.72;5034891;28;19925;-73
2023/06/02 08:10:09;;;;;;;;;;;;;;;20.22;94.18;96028.78;5042519;28;19929;-73
2023/06/02 08:12:36;;;;;;;;;;;;;;;20.47;91.61;96035.81;5040781;28;19925;-74
2023/06/02 08:15:02;;;;;;;;;;;;;;;20.68;90.00;96022.53;5041599;28;19932;-73
2023/06/02 08:17:32;;;;;;;;;;;;;;;20.92;87.65;96025.13;5041792;28;19925;-72
2023/06/02 08:19:59;;;;;;;;;;;;;;;21.11;82.88;96018.41;5023989;28;19925;-72
2023/06/02 08:22:27;;;;;;;;;;;;;;;21.19;82.59;96013.34;5025906;28;19988;-72
2023/06/02 08:24:55;;;;;;;;;;;;;;;21.44;83.26;96010.88;5028002;28;20012;-73
2023/06/02 08:27:22;;;;;;;;;;;;;;;21.55;79.96;96011.47;5039625;28;19957;-72
2023/06/02 08:29:51;;;;;;;;;;;;;;;21.52;81.75;96009.38;5028566;28;20273;-73
2023/06/02 08:32:17;;;;;;;;;;;;;;;21.67;79.99;96008.22;5017958;28;20023;-73
2023/06/02 08:34:47;;;;;;;;;;;;;;;21.78;77.27;96007.66;5021915;28;20016;-72
2023/06/02 08:37:16;;;;;;;;;;;;;;;21.86;76.94;96006.91;5033709;28;19929;-73
2023/06/02 08:39:43;;;;;;;;;;;;;;;22.01;74.87;95999.50;5031012;28;19987;-72
2023/06/02 08:42:11;;;;;;;;;;;;;;;22.07;74.00;95990.81;5035827;28;19925;-72
2023/06/02 08:44:37;;;;;;;;;;;;;;;22.06;73.48;95993.84;5045436;28;20032;-72
2023/06/02 08:47:05;;;;;;;;;;;;;;;22.13;76.48;95992.28;5022477;28;19929;-72
2023/06/02 08:49:35;;;;;;;;;;;;;;;22.27;76.63;95997.75;5023015;28;19925;-73
2023/06/02 08:52:04;;;;;;;;;;;;;;;22.50;73.74;95995.78;5028269;28;19961;-73
2023/06/02 08:54:31;;;;;;;;;;;;;;;22.54;73.23;95996.78;5023522;28;19925;-72
2023/06/02 08:57:00;;;;;;;;;;;;;;;22.47;74.37;95994.47;5041757;28;19925;-73
2023/06/02 08:59:27;;;;;;;;;;;;;;;22.11;80.01;95991.81;5030816;28;19947;-72
2023/06/02 09:01:54;;;;;;;;;;;;;;;22.11;78.02;96002.00;5029275;28;19960;-73
2023/06/02 09:04:20;;;;;;;;;;;;;;;22.44;78.27;95986.03;5046685;28;19925;-72
2023/06/02 09:06:49;;;;;;;;;;;;;;;22.59;78.97;95997.47;5036212;28;19933;-74
2023/06/02 09:09:17;;;;;;;;;;;;;;;22.50;77.77;95987.53;5032836;28;19929;-72
2023/06/02 09:11:59;;;;;;;;;;;;;;;22.76;77.96;95991.28;5028075;28;19936;-73
2023/06/02 09:14:26;;;;;;;;;;;;;;;22.92;79.06;95991.66;5028916;28;19987;-74
2023/06/02 09:16:52;;;;;;;;;;;;;;;22.95;76.56;95989.09;5042857;28;19932;-73
2023/06/02 09:19:19;;;;;;;;;;;;;;;22.89;75.19;95982.09;5032595;28;20234;-72
2023/06/02 09:21:47;;;;;;;;;;;;;;;22.93;76.82;95980.34;5028007;28;19936;-73
2023/06/02 09:24:30;;;;;;;;;;;;;;;22.85;75.44;95977.53;5024628;28;19972;-72
2023/06/02 09:26:58;;;;;;;;;;;;;;;22.97;76.47;95986.00;5039002;28;19925;-72
2023/06/02 09:29:25;;;;;;;;;;;;;;;22.99;74.47;95981.00;5025726;28;19931;-72
2023/06/02 09:31:53;;;;;;;;;;;;;;;23.04;74.47;95980.88;5028906;28;19929;-73
2023/06/02 09:34:21;;;;;;;;;;;;;;;23.15;78.43;95976.69;5022935;28;19925;-72
2023/06/02 09:36:52;;;;;;;;;;;;;;;23.20;76.28;95973.78;5023107;28;19932;-73
2023/06/02 09:39:31;;;;;;;;;;;;;;;23.24;75.96;95973.94;5028627;28;19944;-72
2023/06/02 09:42:00;;;;;;;;;;;;;;;23.21;74.88;95975.41;5023392;28;20131;-72
2023/06/02 09:44:27;;;;;;;;;;;;;;;23.21;73.53;95972.66;5025479;28;19940;-72
2023/06/02 09:46:53;;;;;;;;;;;;;;;23.28;74.91;95975.75;5033544;28;19926;-72
2023/06/02 09:49:20;;;;;;;;;;;;;;;23.38;72.87;95964.44;5014095;28;19933;-72
2023/06/02 09:51:47;;;;;;;;;;;;;;;23.22;73.36;95966.00;5026174;28;19940;-72
2023/06/02 09:54:14;;;;;;;;;;;;;;;23.09;76.47;95966.94;5026683;28;19929;-73
2023/06/02 09:56:41;;;;;;;;;;;;;;;23.19;77.77;95969.41;5027065;28;19935;-72
2023/06/02 09:59:09;;;;;;;;;;;;;;;23.38;77.94;95966.38;5025849;28;19925;-72
2023/06/02 10:01:37;;;;;;;;;;;;;;;23.48;78.12;95968.81;5024472;28;19925;-73
2023/06/02 10:04:05;;;;;;;;;;;;;;;23.57;76.39;95966.91;5027621;28;19932;-73
2023/06/02 10:06:41;;;;;;;;;;;;;;;23.58;77.76;95956.69;5026087;28;19931;-73
2023/06/02 10:09:17;;;;;;;;;;;;;;;23.78;77.85;95950.56;5029024;28;19925;-73
2023/06/02 10:11:48;;;;;;;;;;;;;;;24.03;76.58;95952.50;5019250;28;19925;-72
2023/06/02 10:14:25;;;;;;;;;;;;;;;24.11;73.27;95946.16;5023089;28;19926;-72
2023/06/02 10:16:59;;;;;;;;;;;;;;;24.03;75.22;95952.50;5024544;28;19973;-73
2023/06/02 10:19:45;;;;;;;;;;;;;;;24.13;75.87;95943.91;5027290;28;19961;-73
2023/06/02 10:22:26;;;;;;;;;;;;;;;24.36;76.53;95940.97;5025054;28;19953;-72
2023/06/02 10:24:59;;;;;;;;;;;;;;;24.43;74.00;95928.28;5021766;28;19956;-72
2023/06/02 10:27:28;;;;;;;;;;;;;;;24.43;75.16;95924.72;5027847;28;19964;-73
2023/06/02 10:29:56;;;;;;;;;;;;;;;24.30;73.24;95931.25;5019972;28;19956;-72
2023/06/02 10:32:24;;;;;;;;;;;;;;;24.41;72.81;95914.00;5018252;28;19925;-72
2023/06/02 10:34:51;;;;;;;;;;;;;;;24.47;72.19;95915.47;5026915;28;19925;-72
2023/06/02 10:37:19;;;;;;;;;;;;;;;24.72;74.66;95912.94;5020759;28;19940;-72
2023/06/02 10:39:53;;;;;;;;;;;;;;;24.94;69.60;95909.13;5010937;28;19929;-73
2023/06/02 10:42:21;;;;;;;;;;;;;;;25.05;68.45;95910.38;5022713;28;19980;-73
2023/06/02 10:44:48;;;;;;;;;;;;;;;25.05;68.17;95911.19;5018073;28;19957;-72
2023/06/02 10:47:36;;;;;;;;;;;;;;;25.03;69.56;95907.13;5022823;28;19932;-74
2023/06/02 10:50:04;;;;;;;;;;;;;;;25.02;68.66;95906.31;5020861;28;19983;-75
2023/06/02 10:52:32;;;;;;;;;;;;;;;25.00;69.62;95900.34;5024858;28;19932;-72
2023/06/02 10:55:17;;;;;;;;;;;;;;;25.06;67.09;95896.22;5027848;28;19971;-73
2023/06/02 10:57:51;;;;;;;;;;;;;;;25.24;67.07;95895.00;5024785;28;19925;-72
2023/06/02 11:00:32;;;;;;;;;;;;;;;25.40;68.00;95895.22;5019853;28;19929;-73
2023/06/02 11:03:01;;;;;;;;;;;;;;;25.63;67.19;95887.41;5035821;28;19925;-72
2023/06/02 11:05:28;;;;;;;;;;;;;;;25.66;66.46;95891.47;5033371;28;19924;-72
2023/06/02 11:08:23;;;;;;;;;;;;;;;25.73;64.96;95889.78;5029477;28;19925;-73
2023/06/02 11:10:50;;;;;;;;;;;;;;;25.72;65.31;95884.56;4980284;28;19936;-72
2023/06/02 11:13:17;;;;;;;;;;;;;;;25.78;66.62;95888.75;5019788;28;19925;-73
2023/06/02 11:16:10;;;;;;;;;;;;;;;25.82;64.67;95889.69;5027561;28;19925;-73
2023/06/02 11:18:42;;;;;;;;;;;;;;;25.98;67.07;95888.75;5026852;28;19925;-73
2023/06/02 11:21:17;;;;;;;;;;;;;;;26.07;63.84;95885.06;5027627;28;19925;-73
2023/06/02 11:23:44;;;;;;;;;;;;;;;26.16;65.11;95878.31;5021196;28;19925;-73
2023/06/02 11:26:12;;;;;;;;;;;;;;;26.21;62.09;95880.84;5027728;28;20007;-72
2023/06/02 11:28:38;;;;;;;;;;;;;;;26.14;59.74;95877.84;5027731;28;20044;-73
2023/06/02 11:31:07;;;;;;;;;;;;;;;26.00;62.09;95874.56;5016383;28;19925;-72
2023/06/02 11:33:34;;;;;;;;;;;;;;;26.07;61.89;95874.81;5028119;28;19948;-72
2023/06/02 11:36:02;;;;;;;;;;;;;;;26.09;62.91;95878.06;5028800;28;19929;-72
2023/06/02 11:38:32;;;;;;;;;;;;;;;26.08;60.96;95868.13;5024560;28;19931;-73
2023/06/02 11:41:08;;;;;;;;;;;;;;;26.15;63.02;95864.81;5023088;28;19980;-72
2023/06/02 11:43:35;;;;;;;;;;;;;;;26.30;61.42;95856.69;5021334;28;19935;-73
2023/06/02 11:46:06;;;;;;;;;;;;;;;26.51;61.85;95859.41;5040411;28;19972;-72
2023/06/02 11:48:35;;;;;;;;;;;;;;;26.79;62.43;95856.78;5022949;28;19979;-74
2023/06/02 11:51:04;;;;;;;;;;;;;;;26.95;62.16;95851.38;5039984;28;19932;-73
2023/06/02 11:53:31;;;;;;;;;;;;;;;26.90;60.29;95848.78;5023852;28;19999;-74
2023/06/02 11:55:58;;;;;;;;;;;;;;;26.89;58.61;95845.22;5017703;28;19984;-72
2023/06/02 11:58:27;;;;;;;;;;;;;;;26.81;60.14;95848.09;5033310;28;19932;-73
2023/06/02 12:00:54;;;;;;;;;;;;;;;26.93;61.74;95848.13;5018907;28;19925;-72
2023/06/02 12:03:24;;;;;;;;;;;;;;;27.05;61.05;95842.59;5021649;28;19929;-72
2023/06/02 12:05:51;;;;;;;;;;;;;;;27.04;59.13;95840.97;5043701;28;19935;-73
2023/06/02 12:08:24;;;;;;;;;;;;;;;27.14;59.07;95837.72;5029558;28;19924;-72
2023/06/02 12:10:53;;;;;;;;;;;;;;;27.20;58.61;95838.28;5038811;28;19933;-72
2023/06/02 12:13:24;;;;;;;;;;;;;;;27.19;60.00;95839.44;5030010;28;19979;-72
2023/06/02 12:15:51;;;;;;;;;;;;;;;27.21;56.48;95839.91;5022421;28;19925;-72
2023/06/02 12:18:28;;;;;;;;;;;;;;;27.41;57.62;95833.38;5044429;28;19925;-72
2023/06/02 12:20:55;;;;;;;;;;;;;;;27.35;56.69;95841.16;5025509;28;19994;-72
2023/06/02 12:23:23;;;;;;;;;;;;;;;27.23;57.03;95826.50;5039252;28;19925;-72
2023/06/02 12:25:58;;;;;;;;;;;;;;;27.36;57.99;95825.31;5026016;28;19979;-72
2023/06/02 12:28:25;;;;;;;;;;;;;;;27.48;59.91;95816.97;5005218;28;19932;-73
2023/06/02 12:30:51;;;;;;;;;;;;;;;27.53;58.13;95818.69;5049585;28;19928;-72
2023/06/02 12:33:18;;;;;;;;;;;;;;;27.47;55.75;95810.63;5030248;28;20019;-72
2023/06/02 12:35:45;;;;;;;;;;;;;;;27.66;56.52;95818.31;5040658;28;19924;-73
2023/06/02 12:38:12;;;;;;;;;;;;;;;27.60;55.94;95811.41;5026450;28;19929;-73
2023/06/02 12:40:41;;;;;;;;;;;;;;;27.71;56.73;95812.53;5029744;28;19929;-74
2023/06/02 12:43:07;;;;;;;;;;;;;;;27.88;56.15;95807.84;5025129;28;19945;-72
2023/06/02 12:45:35;;;;;;;;;;;;;;;27.92;56.01;95814.28;5047856;28;19925;-72